createdAt,value
2019-05-23T00:01:50.494Z,84.47
2019-05-23T00:04:23.091Z,84.49
2019-05-23T00:06:50.667Z,84.24
2019-05-23T00:09:17.655Z,84.31
2019-05-23T00:11:46.977Z,84.25
2019-05-23T00:14:29.774Z,83.98
2019-05-23T00:16:57.333Z,83.93
2019-05-23T00:19:25.607Z,84.60
2019-05-23T00:21:53.207Z,84.57
2019-05-23T00:24:21.519Z,84.80
2019-05-23T00:26:48.193Z,84.61
2019-05-23T00:29:16.079Z,84.49
2019-05-23T00:31:47.061Z,84.36
2019-05-23T00:34:14.429Z,84.84
2019-05-23T00:36:42.294Z,85.02
2019-05-23T00:39:08.976Z,84.61
2019-05-23T00:41:36.441Z,84.80
2019-05-23T00:44:04.233Z,84.54
2019-05-23T00:46:30.933Z,84.67
2019-05-23T00:48:58.200Z,84.67
2019-05-23T00:51:25.047Z,84.84
2019-05-23T00:53:52.107Z,84.69
2019-05-23T00:56:19.297Z,84.77
2019-05-23T00:58:45.945Z,84.53
2019-05-23T01:01:12.623Z,84.50
2019-05-23T01:03:39.822Z,84.21
2019-05-23T01:06:06.840Z,84.52
2019-05-23T01:08:34.472Z,84.21
2019-05-23T01:11:01.225Z,84.42
2019-05-23T01:13:29.184Z,84.25
2019-05-23T01:15:56.689Z,84.62
2019-05-23T01:18:24.289Z,84.77
2019-05-23T01:21:16.504Z,84.54
2019-05-23T01:23:46.503Z,84.81
2019-05-23T01:26:13.380Z,84.50
2019-05-23T01:28:40.033Z,85.47
2019-05-23T01:31:10.401Z,85.04
2019-05-23T01:33:37.415Z,84.29
2019-05-23T01:36:04.382Z,83.83
2019-05-23T01:38:31.361Z,84.07
2019-05-23T01:40:58.790Z,83.98
2019-05-23T01:43:26.932Z,83.83
2019-05-23T01:45:53.692Z,84.07
2019-05-23T01:48:20.526Z,84.10
2019-05-23T01:50:48.166Z,84.22
2019-05-23T01:53:15.190Z,84.12
2019-05-23T01:55:43.726Z,84.27
2019-05-23T01:58:10.715Z,84.32
2019-05-23T02:00:37.977Z,84.43
2019-05-23T02:03:05.025Z,84.14
2019-05-23T02:05:32.466Z,83.94
2019-05-23T02:07:59.979Z,83.86
2019-05-23T02:10:27.051Z,83.92
2019-05-23T02:12:54.915Z,84.58
2019-05-23T02:15:22.138Z,84.64
2019-05-23T02:17:49.219Z,84.29
2019-05-23T02:20:18.161Z,84.30
2019-05-23T02:22:45.019Z,84.29
2019-05-23T02:25:13.681Z,84.48
2019-05-23T02:27:40.727Z,84.43
2019-05-23T02:30:07.750Z,84.39
2019-05-23T02:32:34.595Z,84.41
2019-05-23T02:35:02.676Z,84.69
2019-05-23T02:37:55.951Z,84.66
2019-05-23T02:40:42.740Z,84.85
2019-05-23T02:43:11.538Z,84.65
2019-05-23T02:45:44.579Z,84.58
2019-05-23T02:48:13.974Z,84.48
2019-05-23T02:50:46.303Z,84.39
2019-05-23T02:53:15.490Z,84.96
2019-05-23T02:55:42.956Z,84.98
2019-05-23T02:58:35.091Z,84.95
2019-05-23T03:01:41.704Z,84.96
2019-05-23T03:04:13.370Z,85.12
2019-05-23T03:06:40.279Z,85.09
2019-05-23T03:09:07.765Z,85.12
2019-05-23T03:11:38.965Z,85.02
2019-05-23T03:14:05.886Z,85.43
2019-05-23T03:16:33.729Z,86.20
2019-05-23T03:19:05.764Z,85.86
2019-05-23T03:21:34.550Z,85.93
2019-05-23T03:24:01.472Z,85.70
2019-05-23T03:27:13.183Z,86.13
2019-05-23T03:29:40.271Z,85.78
2019-05-23T03:32:21.180Z,86.34
2019-05-23T03:34:52.911Z,85.61
2019-05-23T03:37:21.414Z,85.40
2019-05-23T03:39:48.369Z,85.17
2019-05-23T03:42:15.397Z,86.26
2019-05-23T03:44:44.261Z,86.59
2019-05-23T03:47:13.791Z,86.73
2019-05-23T03:49:41.724Z,86.42
2019-05-23T03:52:09.618Z,86.59
2019-05-23T03:54:36.367Z,86.47
2019-05-23T03:57:03.853Z,86.54
2019-05-23T03:59:30.592Z,86.53
2019-05-23T04:01:58.994Z,86.45
2019-05-23T04:04:26.921Z,86.02
2019-05-23T04:06:53.993Z,85.76
2019-05-23T04:09:21.001Z,85.92
2019-05-23T04:11:48.018Z,85.89
2019-05-23T04:14:15.051Z,86.40
2019-05-23T04:16:42.703Z,86.01
2019-05-23T04:19:09.458Z,86.01
2019-05-23T04:21:36.109Z,85.82
2019-05-23T04:24:02.990Z,85.86
2019-05-23T04:26:29.984Z,86.06
2019-05-23T04:28:57.362Z,86.71
2019-05-23T04:31:24.029Z,86.84
2019-05-23T04:33:50.839Z,86.46
2019-05-23T04:36:17.914Z,86.12
2019-05-23T04:38:44.947Z,85.89
2019-05-23T04:41:11.649Z,86.01
2019-05-23T04:43:38.478Z,85.84
2019-05-23T04:46:06.438Z,85.75
2019-05-23T04:48:34.045Z,85.62
2019-05-23T04:51:00.895Z,85.85
2019-05-23T04:53:27.536Z,86.18
2019-05-23T04:55:54.353Z,86.60
2019-05-23T04:58:20.991Z,86.87
2019-05-23T05:00:48.213Z,87.00
2019-05-23T05:03:18.132Z,86.93
2019-05-23T05:05:44.693Z,87.44
2019-05-23T05:08:11.379Z,87.30
2019-05-23T05:10:38.616Z,87.12
2019-05-23T05:13:05.928Z,87.21
2019-05-23T05:15:32.840Z,87.19
2019-05-23T05:17:59.676Z,87.35
2019-05-23T05:20:26.359Z,87.35
2019-05-23T05:22:53.193Z,87.26
2019-05-23T05:25:19.958Z,87.51
2019-05-23T05:27:47.085Z,87.35
2019-05-23T05:30:14.230Z,87.62
2019-05-23T05:32:45.306Z,87.86
2019-05-23T05:35:09.739Z,88.04
2019-05-23T05:37:36.452Z,87.90
2019-05-23T05:40:05.206Z,87.79
2019-05-23T05:42:33.217Z,87.66
2019-05-23T05:45:00.347Z,87.44
2019-05-23T05:47:27.280Z,87.20
2019-05-23T05:49:54.109Z,87.30
2019-05-23T05:52:21.580Z,87.07
2019-05-23T05:54:48.414Z,87.20
2019-05-23T05:57:15.224Z,87.32
2019-05-23T05:59:42.368Z,87.15
2019-05-23T06:02:11.958Z,86.98
2019-05-23T06:04:39.312Z,86.81
2019-05-23T06:07:16.876Z,87.02
2019-05-23T06:09:44.513Z,86.06
2019-05-23T06:12:12.040Z,85.64
2019-05-23T06:14:38.779Z,85.75
2019-05-23T06:17:07.786Z,86.06
2019-05-23T06:19:34.361Z,86.35
2019-05-23T06:22:02.164Z,86.10
2019-05-23T06:24:44.892Z,86.29
2019-05-23T06:26:58.657Z,85.92
2019-05-23T06:29:25.595Z,85.93
2019-05-23T06:31:52.927Z,86.07
2019-05-23T06:34:20.667Z,85.87
2019-05-23T06:36:48.084Z,86.05
2019-05-23T06:39:15.146Z,86.31
2019-05-23T06:41:42.029Z,86.02
2019-05-23T06:44:09.187Z,85.75
2019-05-23T06:46:35.882Z,84.78
2019-05-23T06:49:02.734Z,83.78
2019-05-23T06:51:30.298Z,83.44
2019-05-23T06:53:57.460Z,82.85
2019-05-23T06:56:24.716Z,81.71
2019-05-23T06:58:51.406Z,81.38
2019-05-23T07:01:18.311Z,81.44
2019-05-23T07:03:45.075Z,81.60
2019-05-23T07:06:14.570Z,81.01
2019-05-23T07:08:41.213Z,80.23
2019-05-23T07:11:07.832Z,78.21
2019-05-23T07:13:35.119Z,76.58
2019-05-23T07:16:01.927Z,76.52
2019-05-23T07:18:28.568Z,76.64
2019-05-23T07:20:55.706Z,75.84
2019-05-23T07:23:22.767Z,74.18
2019-05-23T07:25:49.475Z,73.19
2019-05-23T07:28:16.264Z,71.52
2019-05-23T07:30:42.994Z,69.33
2019-05-23T07:33:09.866Z,71.29
2019-05-23T07:35:36.544Z,69.82
2019-05-23T07:38:03.710Z,69.52
2019-05-23T07:40:31.615Z,66.55
2019-05-23T07:42:58.665Z,64.48
2019-05-23T07:45:30.655Z,63.30
2019-05-23T07:47:57.861Z,63.21
2019-05-23T07:50:24.573Z,63.39
2019-05-23T07:52:52.412Z,60.44
2019-05-23T07:55:27.188Z,61.96
2019-05-23T07:57:53.941Z,60.23
2019-05-23T08:00:25.894Z,62.97
2019-05-23T08:02:53.764Z,60.33
2019-05-23T08:05:21.463Z,62.48
2019-05-23T08:07:48.285Z,62.63
2019-05-23T08:10:30.941Z,60.85
2019-05-23T08:12:44.217Z,61.64
2019-05-23T08:15:11.208Z,59.50
2019-05-23T08:17:38.061Z,57.42
2019-05-23T08:20:05.509Z,58.43
2019-05-23T08:22:32.177Z,57.02
2019-05-23T08:24:58.874Z,56.66
2019-05-23T08:27:25.557Z,57.77
2019-05-23T08:29:52.616Z,56.69
2019-05-23T08:32:19.412Z,56.75
2019-05-23T08:34:46.454Z,56.34
2019-05-23T08:37:14.087Z,56.50
2019-05-23T08:39:41.116Z,55.44
2019-05-23T08:42:09.774Z,52.71
2019-05-23T08:44:37.118Z,53.90
2019-05-23T08:47:07.450Z,52.41
2019-05-23T08:49:34.166Z,52.76
2019-05-23T08:52:00.748Z,51.44
2019-05-23T08:54:28.000Z,48.53
2019-05-23T08:56:54.902Z,49.39
2019-05-23T08:59:22.220Z,50.82
2019-05-23T09:01:48.775Z,50.09
2019-05-23T09:04:16.102Z,52.28
2019-05-23T09:06:43.967Z,50.07
2019-05-23T09:09:28.492Z,49.67
2019-05-23T09:11:40.287Z,50.90
2019-05-23T09:14:07.909Z,50.46
2019-05-23T09:16:34.862Z,52.68
2019-05-23T09:19:01.624Z,51.97
2019-05-23T09:21:28.404Z,49.63
2019-05-23T09:23:55.007Z,52.27
2019-05-23T09:26:22.684Z,48.99
2019-05-23T09:28:50.282Z,48.57
2019-05-23T09:31:17.049Z,47.86
2019-05-23T09:33:43.909Z,47.68
2019-05-23T09:36:10.877Z,49.27
2019-05-23T09:38:37.690Z,43.99
2019-05-23T09:41:04.375Z,49.10
2019-05-23T09:43:32.288Z,49.92
2019-05-23T09:45:59.064Z,47.60
2019-05-23T09:48:26.353Z,48.41
2019-05-23T09:50:52.898Z,47.07
2019-05-23T09:53:19.885Z,44.74
2019-05-23T09:55:46.533Z,46.00
2019-05-23T09:58:13.447Z,43.55
2019-05-23T10:00:40.312Z,44.42
2019-05-23T10:03:06.940Z,44.51
2019-05-23T10:05:42.914Z,42.19
2019-05-23T10:08:02.281Z,42.32
2019-05-23T10:10:30.870Z,41.98
2019-05-23T10:12:57.539Z,41.32
2019-05-23T10:15:42.643Z,40.30
2019-05-23T10:18:15.709Z,44.74
2019-05-23T10:20:42.811Z,38.61
2019-05-23T10:23:09.512Z,38.18
2019-05-23T10:25:36.326Z,41.72
2019-05-23T10:28:03.942Z,38.18
2019-05-23T10:30:31.061Z,42.62
2019-05-23T10:32:57.955Z,38.60
2019-05-23T10:35:24.929Z,39.75
2019-05-23T10:37:51.709Z,45.34
2019-05-23T10:40:18.988Z,40.83
2019-05-23T10:42:45.637Z,42.17
2019-05-23T10:45:14.488Z,40.21
2019-05-23T10:47:41.250Z,42.94
2019-05-23T10:50:09.965Z,39.61
2019-05-23T10:52:37.068Z,39.85
2019-05-23T10:55:03.966Z,41.08
2019-05-23T10:57:30.828Z,36.29
2019-05-23T10:59:57.532Z,37.16
2019-05-23T11:02:26.987Z,40.22
2019-05-23T11:04:53.029Z,36.93
2019-05-23T11:07:19.674Z,40.53
2019-05-23T11:09:46.246Z,43.67
2019-05-23T11:12:14.058Z,43.54
2019-05-23T11:14:40.764Z,44.10
2019-05-23T11:17:07.490Z,45.11
2019-05-23T11:19:34.239Z,44.00
2019-05-23T11:22:00.811Z,43.04
2019-05-23T11:24:27.742Z,43.56
2019-05-23T11:26:54.482Z,41.78
2019-05-23T11:29:21.425Z,43.23
2019-05-23T11:31:48.125Z,40.81
2019-05-23T11:34:14.808Z,40.48
2019-05-23T11:36:41.622Z,41.95
2019-05-23T11:39:08.805Z,45.00
2019-05-23T11:41:36.536Z,41.29
2019-05-23T11:44:04.089Z,40.91
2019-05-23T11:46:35.860Z,41.77
2019-05-23T11:49:04.454Z,43.92
2019-05-23T11:51:31.651Z,47.55
2019-05-23T11:54:07.529Z,45.15
2019-05-23T11:56:26.997Z,40.39
2019-05-23T11:58:54.020Z,40.68
2019-05-23T12:01:31.257Z,40.66
2019-05-23T12:04:16.332Z,39.20
2019-05-23T12:07:06.748Z,40.94
2019-05-23T12:09:33.488Z,41.42
2019-05-23T12:12:00.251Z,40.68
2019-05-23T12:14:27.010Z,41.83
2019-05-23T12:16:55.446Z,41.87
2019-05-23T12:19:22.370Z,43.58
2019-05-23T12:21:49.389Z,41.85
2019-05-23T12:24:16.302Z,42.33
2019-05-23T12:26:43.222Z,40.33
2019-05-23T12:29:09.874Z,40.93
2019-05-23T12:31:36.554Z,42.16
2019-05-23T12:34:03.630Z,41.39
2019-05-23T12:36:30.483Z,40.54
2019-05-23T12:38:57.354Z,47.36
2019-05-23T12:41:23.986Z,56.44
2019-05-23T12:43:50.694Z,55.48
2019-05-23T12:46:17.283Z,58.42
2019-05-23T12:49:08.251Z,57.48
2019-05-23T12:51:36.893Z,60.62
2019-05-23T12:54:03.640Z,58.98
2019-05-23T12:56:30.708Z,59.51
2019-05-23T12:58:58.411Z,55.86
2019-05-23T13:01:25.851Z,63.10
2019-05-23T13:03:52.630Z,57.75
2019-05-23T13:06:19.407Z,63.07
2019-05-23T13:08:46.571Z,61.38
2019-05-23T13:11:13.953Z,62.23
2019-05-23T13:13:40.857Z,63.54
2019-05-23T13:16:07.701Z,62.27
2019-05-23T13:18:34.493Z,65.82
2019-05-23T13:21:01.346Z,63.66
2019-05-23T13:23:28.124Z,65.03
2019-05-23T13:25:54.762Z,64.93
2019-05-23T13:28:21.687Z,60.71
2019-05-23T13:30:48.342Z,61.20
2019-05-23T13:33:15.463Z,60.17
2019-05-23T13:35:43.006Z,64.70
2019-05-23T13:38:09.932Z,61.84
2019-05-23T13:40:36.630Z,64.56
2019-05-23T13:43:07.273Z,65.46
2019-05-23T13:45:32.785Z,64.28
2019-05-23T13:48:00.019Z,57.64
2019-05-23T13:50:26.697Z,55.88
2019-05-23T13:52:53.429Z,52.71
2019-05-23T13:55:20.761Z,49.09
2019-05-23T13:57:47.810Z,46.93
2019-05-23T14:00:15.831Z,47.27
2019-05-23T14:02:42.736Z,49.86
2019-05-23T14:05:10.141Z,48.02
2019-05-23T14:07:39.407Z,43.91
2019-05-23T14:10:06.576Z,43.01
2019-05-23T14:12:33.243Z,40.56
2019-05-23T14:15:00.038Z,40.36
2019-05-23T14:17:38.432Z,40.79
2019-05-23T14:20:05.897Z,41.76
2019-05-23T14:22:37.794Z,39.36
2019-05-23T14:25:04.519Z,42.52
2019-05-23T14:27:43.509Z,41.87
2019-05-23T14:30:33.412Z,41.85
2019-05-23T14:33:02.243Z,40.16
2019-05-23T14:35:30.465Z,43.33
2019-05-23T14:37:58.878Z,41.28
2019-05-23T14:40:25.726Z,41.39
2019-05-23T14:43:10.742Z,39.11
2019-05-23T14:46:06.030Z,40.65
2019-05-23T14:48:57.636Z,36.94
2019-05-23T14:51:35.915Z,40.03
2019-05-23T14:54:07.758Z,40.00
2019-05-23T14:56:37.118Z,40.09
2019-05-23T14:59:03.983Z,39.69
2019-05-23T15:01:32.598Z,38.07
2019-05-23T15:03:59.316Z,40.90
2019-05-23T15:06:26.003Z,40.89
2019-05-23T15:08:52.691Z,38.41
2019-05-23T15:11:19.366Z,42.73
2019-05-23T15:13:46.111Z,44.20
2019-05-23T15:16:13.880Z,42.65
2019-05-23T15:18:40.578Z,42.12
2019-05-23T15:21:07.439Z,44.44
2019-05-23T15:23:34.591Z,43.06
2019-05-23T15:26:01.644Z,41.33
2019-05-23T15:28:28.431Z,41.60
2019-05-23T15:30:55.210Z,42.38
2019-05-23T15:33:22.045Z,46.25
2019-05-23T15:35:48.906Z,43.46
2019-05-23T15:38:15.785Z,46.28
2019-05-23T15:40:42.344Z,43.86
2019-05-23T15:43:10.111Z,46.55
2019-05-23T15:45:37.639Z,44.40
2019-05-23T15:48:04.480Z,45.73
2019-05-23T15:50:39.936Z,43.72
2019-05-23T15:53:15.895Z,46.09
2019-05-23T15:55:51.713Z,43.00
2019-05-23T15:58:30.399Z,46.87
2019-05-23T16:01:09.258Z,43.20
2019-05-23T16:03:47.639Z,45.00
2019-05-23T16:06:16.337Z,45.41
2019-05-23T16:08:43.645Z,44.26
2019-05-23T16:11:10.624Z,44.94
2019-05-23T16:13:37.436Z,43.84
2019-05-23T16:16:04.169Z,43.96
2019-05-23T16:18:31.978Z,43.56
2019-05-23T16:20:58.860Z,42.51
2019-05-23T16:23:25.604Z,46.16
2019-05-23T16:25:52.520Z,45.81
2019-05-23T16:28:19.254Z,43.90
2019-05-23T16:30:46.156Z,45.40
2019-05-23T16:33:13.117Z,43.44
2019-05-23T16:35:40.035Z,45.24
2019-05-23T16:38:06.720Z,46.09
2019-05-23T16:40:33.450Z,45.66
2019-05-23T16:43:00.205Z,46.05
2019-05-23T16:45:26.822Z,46.58
2019-05-23T16:47:53.603Z,43.67
2019-05-23T16:50:20.823Z,45.35
2019-05-23T16:52:47.661Z,46.36
2019-05-23T16:55:20.504Z,47.24
2019-05-23T16:57:53.924Z,46.84
2019-05-23T17:00:38.944Z,47.08
2019-05-23T17:03:16.440Z,49.23
2019-05-23T17:05:52.845Z,48.25
2019-05-23T17:08:31.872Z,46.27
2019-05-23T17:11:24.210Z,48.01
2019-05-23T17:13:54.740Z,47.09
2019-05-23T17:16:29.047Z,48.40
2019-05-23T17:19:01.322Z,47.80
2019-05-23T17:21:47.940Z,48.66
2019-05-23T17:24:29.678Z,47.37
2019-05-23T17:27:04.178Z,49.77
2019-05-23T17:29:45.732Z,49.04
2019-05-23T17:32:14.887Z,49.38
2019-05-23T17:34:41.680Z,49.70
2019-05-23T17:37:09.775Z,50.26
2019-05-23T17:39:37.259Z,51.24
2019-05-23T17:42:04.597Z,49.91
2019-05-23T17:44:31.278Z,51.69
2019-05-23T17:46:58.492Z,51.19
2019-05-23T17:49:25.331Z,51.93
2019-05-23T17:51:52.053Z,53.28
2019-05-23T17:54:19.481Z,52.61
2019-05-23T17:56:46.549Z,53.40
2019-05-23T17:59:13.433Z,53.81
2019-05-23T18:01:40.721Z,53.61
2019-05-23T18:04:07.465Z,53.25
2019-05-23T18:06:34.651Z,54.24
2019-05-23T18:09:03.571Z,54.81
2019-05-23T18:11:30.201Z,54.23
2019-05-23T18:13:56.863Z,55.43
2019-05-23T18:16:24.134Z,55.40
2019-05-23T18:18:51.116Z,54.44
2019-05-23T18:21:18.741Z,55.94
2019-05-23T18:23:45.498Z,55.29
2019-05-23T18:26:12.990Z,55.89
2019-05-23T18:28:39.964Z,57.40
2019-05-23T18:31:12.852Z,56.71
2019-05-23T18:33:41.554Z,56.88
2019-05-23T18:36:09.100Z,56.89
2019-05-23T18:38:36.871Z,57.82
2019-05-23T18:41:09.018Z,58.09
2019-05-23T18:43:33.757Z,58.43
2019-05-23T18:46:03.885Z,58.65
2019-05-23T18:48:31.014Z,58.30
2019-05-23T18:50:57.967Z,58.41
2019-05-23T18:53:24.741Z,58.62
2019-05-23T18:55:51.565Z,58.57
2019-05-23T18:58:20.032Z,58.84
2019-05-23T19:01:01.342Z,59.21
2019-05-23T19:03:29.642Z,59.38
2019-05-23T19:05:56.623Z,59.92
2019-05-23T19:08:23.530Z,60.01
2019-05-23T19:10:50.494Z,60.26
2019-05-23T19:13:17.542Z,60.32
2019-05-23T19:15:46.497Z,60.21
2019-05-23T19:18:18.115Z,60.41
2019-05-23T19:20:46.603Z,61.12
2019-05-23T19:23:19.013Z,61.32
2019-05-23T19:25:47.174Z,61.07
2019-05-23T19:28:14.642Z,61.47
2019-05-23T19:30:41.791Z,62.04
2019-05-23T19:33:08.705Z,61.84
2019-05-23T19:35:36.663Z,61.89
2019-05-23T19:38:04.264Z,62.59
2019-05-23T19:40:31.399Z,62.72
2019-05-23T19:42:58.142Z,62.31
2019-05-23T19:45:25.195Z,62.26
2019-05-23T19:47:52.257Z,62.71
2019-05-23T19:50:19.089Z,62.92
2019-05-23T19:52:46.417Z,62.77
2019-05-23T19:55:13.206Z,63.04
2019-05-23T19:57:40.306Z,63.30
2019-05-23T20:00:09.324Z,63.74
2019-05-23T20:02:49.317Z,63.53
2019-05-23T20:05:36.115Z,63.49
2019-05-23T20:08:03.403Z,64.04
2019-05-23T20:10:30.231Z,63.87
2019-05-23T20:12:57.278Z,64.13
2019-05-23T20:18:12.993Z,64.72
2019-05-23T20:20:40.250Z,65.06
2019-05-23T20:23:07.647Z,65.52
2019-05-23T20:25:35.770Z,65.44
2019-05-23T20:28:03.358Z,65.70
2019-05-23T20:30:50.597Z,66.04
2019-05-23T20:33:17.978Z,66.46
2019-05-23T20:35:44.756Z,66.75
2019-05-23T20:38:11.644Z,67.29
2019-05-23T20:40:38.448Z,67.54
2019-05-23T20:43:05.312Z,67.23
2019-05-23T20:45:32.112Z,67.60
2019-05-23T20:47:58.954Z,67.63
2019-05-23T20:50:25.804Z,67.72
2019-05-23T20:52:52.477Z,67.70
2019-05-23T20:55:19.220Z,68.04
2019-05-23T20:57:45.891Z,68.03
2019-05-23T21:00:14.675Z,67.89
2019-05-23T21:02:41.874Z,68.40
2019-05-23T21:05:09.660Z,68.75
2019-05-23T21:07:36.369Z,68.85
2019-05-23T21:10:03.427Z,68.92
2019-05-23T21:12:30.700Z,69.29
2019-05-23T21:14:57.377Z,69.41
2019-05-23T21:17:25.490Z,69.72
2019-05-23T21:19:52.203Z,69.71
2019-05-23T21:22:18.959Z,69.68
2019-05-23T21:24:45.814Z,69.95
2019-05-23T21:27:12.351Z,70.26
2019-05-23T21:29:39.102Z,70.08
2019-05-23T21:32:06.284Z,70.22
2019-05-23T21:34:33.011Z,70.26
2019-05-23T21:37:00.278Z,70.63
2019-05-23T21:39:26.942Z,70.69
2019-05-23T21:41:53.465Z,70.90
2019-05-23T21:44:20.297Z,70.97
2019-05-23T21:46:46.899Z,71.29
2019-05-23T21:49:13.770Z,70.99
2019-05-23T21:51:40.467Z,71.07
2019-05-23T21:54:07.329Z,71.10
2019-05-23T21:56:33.993Z,71.26
2019-05-23T21:59:00.573Z,71.30
2019-05-23T22:01:43.022Z,71.53
2019-05-23T22:04:41.089Z,71.64
2019-05-23T22:07:08.605Z,71.90
2019-05-23T22:09:35.340Z,71.86
2019-05-23T22:12:03.110Z,71.97
2019-05-23T22:14:29.752Z,72.09
2019-05-23T22:16:56.511Z,72.20
2019-05-23T22:19:23.584Z,72.39
2019-05-23T22:21:50.231Z,72.46
2019-05-23T22:24:17.844Z,72.63
2019-05-23T22:26:45.788Z,72.41
2019-05-23T22:29:12.627Z,72.45
2019-05-23T22:31:39.532Z,72.63
2019-05-23T22:34:12.494Z,72.71
2019-05-23T22:36:39.229Z,72.88
2019-05-23T22:39:06.095Z,72.93
2019-05-23T22:41:32.805Z,73.00
2019-05-23T22:43:59.399Z,72.97
2019-05-23T22:46:26.629Z,73.22
2019-05-23T22:48:53.389Z,73.49
2019-05-23T22:51:19.984Z,74.25
2019-05-23T22:53:46.554Z,74.41
2019-05-23T22:56:13.472Z,74.07
2019-05-23T22:58:40.092Z,74.25
2019-05-23T23:01:06.925Z,74.15
2019-05-23T23:03:33.442Z,74.24
2019-05-23T23:06:00.468Z,74.43
2019-05-23T23:08:27.509Z,74.48
2019-05-23T23:10:54.142Z,74.49
2019-05-23T23:13:37.420Z,74.59
2019-05-23T23:15:49.918Z,74.55
2019-05-23T23:18:16.619Z,74.52
2019-05-23T23:20:45.808Z,74.40
2019-05-23T23:23:12.033Z,74.61
2019-05-23T23:25:39.742Z,74.75
2019-05-23T23:28:06.416Z,74.87
2019-05-23T23:30:35.677Z,74.86
2019-05-23T23:33:02.280Z,74.99
2019-05-23T23:35:28.915Z,74.87
2019-05-23T23:37:55.897Z,74.79
2019-05-23T23:40:22.536Z,74.71
2019-05-23T23:42:49.206Z,74.93
2019-05-23T23:45:34.428Z,74.83
2019-05-23T23:48:19.658Z,74.88
2019-05-23T23:51:04.612Z,75.09
2019-05-23T23:53:49.656Z,75.07
2019-05-23T23:56:34.519Z,75.56
2019-05-23T23:59:00.877Z,75.86
